createdAt,value
2023-03-26T00:01:26.478Z,79.81
2023-03-26T00:03:57.361Z,79.71
2023-03-26T00:06:27.923Z,80.17
2023-03-26T00:08:57.100Z,80.34
2023-03-26T00:11:26.037Z,79.60
2023-03-26T00:13:56.842Z,80.17
2023-03-26T00:16:27.620Z,80.52
2023-03-26T00:18:55.188Z,80.32
2023-03-26T00:21:27.605Z,80.32
2023-03-26T00:23:55.218Z,80.12
2023-03-26T00:26:23.981Z,80.84
2023-03-26T00:28:51.812Z,80.64
2023-03-26T00:31:19.590Z,80.68
2023-03-26T00:33:48.474Z,79.92
2023-03-26T00:36:17.533Z,80.25
2023-03-26T00:38:46.890Z,80.40
2023-03-26T00:41:23.164Z,80.16
2023-03-26T00:43:51.944Z,80.44
2023-03-26T00:46:19.585Z,81.11
2023-03-26T00:48:48.614Z,81.00
2023-03-26T00:51:16.876Z,80.20
2023-03-26T00:53:45.404Z,80.51
2023-03-26T00:56:13.357Z,80.19
2023-03-26T00:58:41.409Z,80.64
2023-03-26T01:01:10.803Z,80.78
2023-03-26T01:03:39.214Z,80.76
2023-03-26T01:06:09.972Z,80.47
2023-03-26T01:08:39.650Z,80.78
2023-03-26T01:11:14.304Z,80.80
2023-03-26T01:13:45.812Z,80.76
2023-03-26T01:16:20.361Z,80.54
2023-03-26T01:18:49.337Z,80.29
2023-03-26T01:21:23.110Z,80.67
2023-03-26T01:23:59.693Z,80.59
2023-03-26T01:26:55.765Z,81.25
2023-03-26T01:29:30.714Z,80.61
2023-03-26T01:32:04.564Z,81.98
2023-03-26T01:34:40.852Z,82.07
2023-03-26T01:37:14.484Z,82.22
2023-03-26T01:39:53.301Z,83.02
2023-03-26T01:42:28.582Z,82.22
2023-03-26T01:44:59.323Z,82.18
2023-03-26T01:47:27.135Z,82.60
2023-03-26T01:49:54.778Z,82.66
2023-03-26T01:52:26.081Z,82.15
2023-03-26T01:54:55.713Z,82.66
2023-03-26T01:57:31.176Z,82.19
2023-03-26T02:00:11.666Z,82.49
2023-03-26T02:02:45.825Z,82.80
2023-03-26T02:05:17.083Z,82.47
2023-03-26T02:07:47.851Z,82.43
2023-03-26T02:10:18.571Z,82.17
2023-03-26T02:12:46.093Z,82.32
2023-03-26T02:15:13.965Z,82.17
2023-03-26T02:17:41.630Z,82.21
2023-03-26T02:20:10.875Z,82.13
2023-03-26T02:22:40.910Z,82.01
2023-03-26T02:25:10.303Z,81.83
2023-03-26T02:27:39.519Z,81.41
2023-03-26T02:30:09.450Z,81.39
2023-03-26T02:32:38.795Z,81.49
2023-03-26T02:35:07.615Z,81.48
2023-03-26T02:37:35.159Z,81.33
2023-03-26T02:40:05.524Z,81.79
2023-03-26T02:42:33.030Z,81.61
2023-03-26T02:45:01.858Z,81.81
2023-03-26T02:47:29.365Z,81.05
2023-03-26T02:49:56.869Z,81.13
2023-03-26T02:52:24.347Z,81.18
2023-03-26T02:54:51.966Z,80.57
2023-03-26T02:57:19.451Z,80.83
2023-03-26T02:59:47.229Z,80.81
2023-03-26T03:02:16.067Z,81.04
2023-03-26T03:04:44.016Z,81.01
2023-03-26T03:07:14.378Z,80.34
2023-03-26T03:09:42.050Z,81.04
2023-03-26T03:12:09.567Z,81.37
2023-03-26T03:14:37.770Z,81.01
2023-03-26T03:17:05.292Z,81.59
2023-03-26T03:19:34.167Z,81.91
2023-03-26T03:22:01.776Z,81.17
2023-03-26T03:24:29.313Z,80.99
2023-03-26T03:26:57.966Z,81.16
2023-03-26T03:29:25.467Z,80.97
2023-03-26T03:31:52.962Z,81.58
2023-03-26T03:34:21.598Z,81.72
2023-03-26T03:36:50.468Z,80.81
2023-03-26T03:39:17.950Z,81.62
2023-03-26T03:41:45.486Z,81.90
2023-03-26T03:44:12.986Z,81.28
2023-03-26T03:46:40.724Z,80.99
2023-03-26T03:49:08.202Z,81.06
2023-03-26T03:51:36.069Z,81.28
2023-03-26T03:54:05.093Z,80.85
2023-03-26T03:56:32.668Z,80.29
2023-03-26T03:59:00.173Z,80.09
2023-03-26T04:01:30.635Z,80.47
2023-03-26T04:03:58.307Z,80.95
2023-03-26T04:06:30.215Z,80.33
2023-03-26T04:08:58.038Z,80.43
2023-03-26T04:11:26.845Z,80.65
2023-03-26T04:13:54.328Z,80.69
2023-03-26T04:16:21.884Z,81.37
2023-03-26T04:18:49.467Z,80.11
2023-03-26T04:21:16.955Z,80.16
2023-03-26T04:23:44.441Z,80.16
2023-03-26T04:26:16.223Z,80.33
2023-03-26T04:28:46.896Z,80.32
2023-03-26T04:31:17.053Z,80.55
2023-03-26T04:33:47.291Z,80.58
2023-03-26T04:36:15.962Z,80.64
2023-03-26T04:38:46.140Z,80.52
2023-03-26T04:43:47.459Z,80.41
2023-03-26T04:46:18.431Z,79.94
2023-03-26T04:48:46.090Z,79.39
2023-03-26T04:51:17.967Z,79.56
2023-03-26T04:53:48.813Z,79.43
2023-03-26T04:56:24.560Z,79.50
2023-03-26T04:58:52.165Z,78.88
2023-03-26T05:01:21.574Z,79.23
2023-03-26T05:03:49.129Z,79.46
2023-03-26T05:06:17.681Z,79.72
2023-03-26T05:08:45.287Z,79.42
2023-03-26T05:11:12.840Z,79.25
2023-03-26T05:13:42.775Z,79.61
2023-03-26T05:16:11.144Z,80.08
2023-03-26T05:18:40.303Z,80.46
2023-03-26T05:21:08.186Z,79.68
2023-03-26T05:23:35.647Z,79.81
2023-03-26T05:26:03.144Z,80.33
2023-03-26T05:28:30.686Z,80.62
2023-03-26T05:30:58.566Z,80.46
2023-03-26T05:33:26.120Z,80.01
2023-03-26T05:36:02.087Z,80.37
2023-03-26T05:38:29.992Z,80.29
2023-03-26T05:41:00.635Z,79.85
2023-03-26T05:43:28.153Z,79.96
2023-03-26T05:45:55.720Z,80.04
2023-03-26T05:48:23.374Z,79.69
2023-03-26T05:50:51.902Z,79.55
2023-03-26T05:53:21.849Z,79.16
2023-03-26T05:55:50.487Z,79.47
2023-03-26T05:58:17.987Z,79.43
2023-03-26T06:00:48.854Z,79.33
2023-03-26T06:03:16.576Z,78.67
2023-03-26T06:05:44.451Z,79.28
2023-03-26T06:08:12.171Z,78.95
2023-03-26T06:10:41.359Z,79.55
2023-03-26T06:13:08.903Z,79.28
2023-03-26T06:15:36.415Z,79.05
2023-03-26T06:18:04.105Z,79.59
2023-03-26T06:20:31.794Z,79.89
2023-03-26T06:22:59.248Z,79.16
2023-03-26T06:25:26.748Z,79.24
2023-03-26T06:27:55.696Z,79.14
2023-03-26T06:30:23.255Z,79.35
2023-03-26T06:32:50.966Z,78.59
2023-03-26T06:35:18.600Z,77.83
2023-03-26T06:37:46.289Z,78.09
2023-03-26T06:40:15.510Z,78.68
2023-03-26T06:43:07.684Z,78.44
2023-03-26T06:45:33.570Z,78.19
2023-03-26T06:48:01.261Z,79.10
2023-03-26T06:50:29.179Z,79.05
2023-03-26T06:52:57.401Z,79.06
2023-03-26T06:55:25.918Z,78.58
2023-03-26T06:57:54.595Z,77.21
2023-03-26T07:00:23.121Z,76.15
2023-03-26T07:02:51.923Z,77.73
2023-03-26T07:05:19.513Z,77.14
2023-03-26T07:07:47.245Z,77.50
2023-03-26T07:10:15.382Z,77.24
2023-03-26T07:12:43.932Z,75.98
2023-03-26T07:15:11.972Z,75.90
2023-03-26T07:17:39.683Z,75.75
2023-03-26T07:20:12.849Z,76.84
2023-03-26T07:22:41.109Z,75.98
2023-03-26T07:25:10.329Z,76.40
2023-03-26T07:27:43.684Z,76.63
2023-03-26T07:30:13.798Z,76.60
2023-03-26T07:32:48.385Z,75.79
2023-03-26T07:35:21.863Z,75.27
2023-03-26T07:37:55.796Z,77.29
2023-03-26T07:40:38.915Z,77.49
2023-03-26T07:43:08.069Z,77.58
2023-03-26T07:45:39.600Z,77.28
2023-03-26T07:48:11.889Z,76.81
2023-03-26T07:50:41.356Z,76.04
2023-03-26T07:53:09.384Z,76.71
2023-03-26T07:55:42.329Z,77.41
2023-03-26T07:58:12.667Z,76.84
2023-03-26T08:00:43.064Z,75.71
2023-03-26T08:03:29.525Z,76.88
2023-03-26T08:06:06.706Z,76.58
2023-03-26T08:08:39.813Z,75.91
2023-03-26T08:11:16.007Z,76.28
2023-03-26T08:13:56.872Z,75.14
2023-03-26T08:16:29.326Z,76.35
2023-03-26T08:19:02.945Z,76.35
2023-03-26T08:21:36.591Z,75.86
2023-03-26T08:24:09.472Z,76.12
2023-03-26T08:26:38.595Z,72.54
2023-03-26T08:29:11.968Z,74.93
2023-03-26T08:31:41.354Z,75.73
2023-03-26T08:34:11.378Z,75.19
2023-03-26T08:36:40.808Z,72.90
2023-03-26T08:39:08.918Z,73.09
2023-03-26T08:42:05.614Z,73.42
2023-03-26T08:44:49.757Z,74.23
2023-03-26T08:47:56.982Z,74.37
2023-03-26T08:51:01.519Z,74.83
2023-03-26T08:53:59.385Z,73.79
2023-03-26T08:56:30.709Z,75.06
2023-03-26T08:59:20.043Z,72.92
2023-03-26T09:02:06.059Z,74.11
2023-03-26T09:04:48.668Z,73.85
2023-03-26T09:07:48.988Z,71.53
2023-03-26T09:10:54.688Z,71.37
2023-03-26T09:13:38.574Z,73.51
2023-03-26T09:16:43.144Z,69.64
2023-03-26T09:20:01.378Z,73.86
2023-03-26T09:22:53.942Z,73.21
2023-03-26T09:25:55.875Z,72.90
2023-03-26T09:28:59.890Z,72.47
2023-03-26T09:31:59.440Z,73.03
2023-03-26T09:34:31.770Z,71.87
2023-03-26T09:37:14.905Z,72.23
2023-03-26T09:39:50.923Z,72.89
2023-03-26T09:42:25.376Z,69.15
2023-03-26T09:45:22.593Z,71.94
2023-03-26T09:48:35.908Z,67.92
2023-03-26T09:51:15.531Z,71.66
2023-03-26T09:53:58.195Z,70.73
2023-03-26T09:56:33.229Z,66.84
2023-03-26T09:59:26.342Z,70.04
2023-03-26T10:02:00.821Z,66.26
2023-03-26T10:04:40.377Z,69.26
2023-03-26T10:07:14.944Z,70.91
2023-03-26T10:09:51.065Z,70.30
2023-03-26T10:12:27.886Z,69.61
2023-03-26T10:15:06.856Z,67.12
2023-03-26T10:17:53.508Z,66.29
2023-03-26T10:20:32.475Z,66.36
2023-03-26T10:23:09.133Z,63.74
2023-03-26T10:25:44.172Z,67.74
2023-03-26T10:28:27.345Z,65.70
2023-03-26T10:31:07.346Z,69.70
2023-03-26T10:33:41.717Z,68.24
2023-03-26T10:36:20.172Z,67.65
2023-03-26T10:38:58.728Z,68.15
2023-03-26T10:41:31.577Z,68.71
2023-03-26T10:44:10.214Z,65.01
2023-03-26T10:46:52.289Z,69.56
2023-03-26T10:49:50.772Z,67.67
2023-03-26T10:52:21.467Z,65.50
2023-03-26T10:54:55.936Z,64.21
2023-03-26T10:57:38.525Z,63.68
2023-03-26T11:00:16.041Z,65.85
2023-03-26T11:02:48.756Z,64.58
2023-03-26T11:05:21.150Z,67.05
2023-03-26T11:07:53.753Z,66.42
2023-03-26T11:10:26.358Z,64.19
2023-03-26T11:12:56.927Z,66.68
2023-03-26T11:15:27.987Z,64.62
2023-03-26T11:18:06.345Z,64.00
2023-03-26T11:20:38.731Z,63.62
2023-03-26T11:23:21.539Z,64.68
2023-03-26T11:25:59.045Z,62.85
2023-03-26T11:28:39.447Z,62.83
2023-03-26T11:31:14.749Z,65.38
2023-03-26T11:33:46.382Z,65.15
2023-03-26T11:36:17.596Z,63.75
2023-03-26T11:38:47.465Z,62.79
2023-03-26T11:41:22.568Z,62.88
2023-03-26T11:43:53.304Z,64.58
2023-03-26T11:46:23.576Z,64.69
2023-03-26T11:48:54.971Z,62.43
2023-03-26T11:51:26.561Z,63.21
2023-03-26T11:53:54.519Z,63.01
2023-03-26T11:56:28.217Z,63.56
2023-03-26T11:59:01.149Z,64.35
2023-03-26T12:01:30.928Z,63.78
2023-03-26T12:04:06.950Z,63.33
2023-03-26T12:06:34.446Z,62.58
2023-03-26T12:09:01.900Z,62.12
2023-03-26T12:11:35.256Z,63.22
2023-03-26T12:14:05.391Z,63.96
2023-03-26T12:16:32.937Z,64.01
2023-03-26T12:19:06.211Z,62.54
2023-03-26T12:21:46.058Z,62.55
2023-03-26T12:24:29.246Z,62.34
2023-03-26T12:27:02.116Z,65.83
2023-03-26T12:29:34.113Z,61.15
2023-03-26T12:32:07.960Z,61.54
2023-03-26T12:34:39.377Z,62.99
2023-03-26T12:37:08.858Z,63.24
2023-03-26T12:40:07.500Z,64.17
2023-03-26T12:44:48.181Z,62.45
2023-03-26T12:45:16.821Z,63.84
2023-03-26T12:47:58.101Z,63.86
2023-03-26T12:50:39.416Z,65.00
2023-03-26T12:53:19.444Z,66.85
2023-03-26T12:55:56.032Z,61.90
2023-03-26T12:58:38.220Z,62.49
2023-03-26T13:01:15.907Z,63.16
2023-03-26T13:03:55.998Z,63.58
2023-03-26T13:06:33.613Z,62.96
2023-03-26T13:09:44.471Z,62.41
2023-03-26T13:12:23.020Z,65.58
2023-03-26T13:15:04.883Z,64.13
2023-03-26T13:17:35.676Z,63.63
2023-03-26T13:20:08.061Z,61.53
2023-03-26T13:22:42.902Z,62.73
2023-03-26T13:25:22.069Z,63.92
2023-03-26T13:27:56.254Z,60.61
2023-03-26T13:30:31.130Z,60.99
2023-03-26T13:33:08.385Z,61.63
2023-03-26T13:35:41.072Z,64.11
2023-03-26T13:38:11.952Z,62.24
2023-03-26T13:40:47.836Z,64.87
2023-03-26T13:43:24.257Z,64.11
2023-03-26T13:45:57.260Z,61.59
2023-03-26T13:48:27.327Z,59.53
2023-03-26T13:51:00.708Z,60.86
2023-03-26T13:53:35.589Z,59.30
2023-03-26T13:56:03.176Z,63.60
2023-03-26T13:58:36.246Z,60.61
2023-03-26T14:01:09.264Z,64.40
2023-03-26T14:03:45.540Z,63.04
2023-03-26T14:06:30.710Z,62.96
2023-03-26T14:09:04.827Z,60.60
2023-03-26T14:11:39.248Z,63.38
2023-03-26T14:14:08.649Z,61.58
2023-03-26T14:16:39.376Z,61.74
2023-03-26T14:19:24.757Z,62.23
2023-03-26T14:22:02.615Z,62.53
2023-03-26T14:24:58.106Z,65.58
2023-03-26T14:27:34.832Z,62.15
2023-03-26T14:30:21.716Z,63.36
2023-03-26T14:33:03.138Z,64.78
2023-03-26T14:35:37.766Z,64.42
2023-03-26T14:38:33.914Z,66.64
2023-03-26T14:41:17.220Z,66.79
2023-03-26T14:44:00.882Z,66.07
2023-03-26T14:46:37.714Z,67.18
2023-03-26T14:49:36.131Z,64.78
2023-03-26T14:52:07.207Z,68.56
2023-03-26T14:54:38.468Z,68.77
2023-03-26T14:57:22.471Z,69.07
2023-03-26T15:00:27.083Z,72.65
2023-03-26T15:03:34.432Z,73.69
2023-03-26T15:06:39.489Z,72.57
2023-03-26T15:09:58.759Z,74.26
2023-03-26T15:12:38.257Z,75.51
2023-03-26T15:15:38.230Z,74.18
2023-03-26T15:18:46.337Z,76.54
2023-03-26T15:21:55.472Z,73.05
2023-03-26T15:24:48.860Z,74.58
2023-03-26T15:27:39.351Z,75.14
2023-03-26T15:30:28.540Z,73.89
2023-03-26T15:33:24.952Z,74.53
2023-03-26T15:36:24.909Z,74.10
2023-03-26T15:39:18.423Z,74.37
2023-03-26T15:41:53.586Z,72.68
2023-03-26T15:44:50.920Z,72.76
2023-03-26T15:47:36.185Z,73.30
2023-03-26T15:50:14.562Z,73.37
2023-03-26T15:52:48.892Z,74.19
2023-03-26T15:55:28.100Z,74.16
2023-03-26T15:57:58.020Z,72.65
2023-03-26T16:00:32.196Z,73.30
2023-03-26T16:03:31.073Z,72.75
2023-03-26T16:06:14.310Z,73.30
2023-03-26T16:08:47.236Z,72.96
2023-03-26T16:11:15.521Z,73.50
2023-03-26T16:13:45.246Z,72.53
2023-03-26T16:16:24.154Z,72.51
2023-03-26T16:18:58.352Z,73.63
2023-03-26T16:21:55.634Z,70.45
2023-03-26T16:24:30.423Z,71.93
2023-03-26T16:27:34.095Z,71.74
2023-03-26T16:30:30.438Z,71.75
2023-03-26T16:33:09.909Z,72.24
2023-03-26T16:35:57.171Z,72.08
2023-03-26T16:38:27.346Z,72.01
2023-03-26T16:41:02.814Z,72.19
2023-03-26T16:43:42.374Z,71.37
2023-03-26T16:46:28.173Z,71.83
2023-03-26T16:49:01.611Z,70.90
2023-03-26T16:51:42.314Z,71.72
2023-03-26T16:54:18.312Z,71.84
2023-03-26T16:56:50.052Z,70.96
2023-03-26T16:59:40.053Z,70.49
2023-03-26T17:02:17.977Z,69.42
2023-03-26T17:04:49.575Z,71.26
2023-03-26T17:07:21.018Z,70.35
2023-03-26T17:09:56.820Z,71.22
2023-03-26T17:12:32.889Z,72.48
2023-03-26T17:15:13.240Z,70.51
2023-03-26T17:17:51.196Z,72.02
2023-03-26T17:20:33.462Z,71.23
2023-03-26T17:23:15.102Z,70.88
2023-03-26T17:25:47.062Z,70.63
2023-03-26T17:28:32.212Z,71.98
2023-03-26T17:31:04.440Z,70.09
2023-03-26T17:33:34.736Z,69.27
2023-03-26T17:36:22.118Z,70.50
2023-03-26T17:39:00.783Z,70.10
2023-03-26T17:41:51.415Z,71.48
2023-03-26T17:44:37.678Z,70.47
2023-03-26T17:47:07.592Z,71.66
2023-03-26T17:49:36.450Z,70.47
2023-03-26T17:52:16.896Z,70.50
2023-03-26T17:54:46.426Z,70.49
2023-03-26T17:57:16.257Z,71.81
2023-03-26T17:59:44.581Z,70.32
2023-03-26T18:02:15.282Z,72.06
2023-03-26T18:04:45.687Z,71.31
2023-03-26T18:07:30.538Z,71.31
2023-03-26T18:10:12.831Z,71.52
2023-03-26T18:13:06.323Z,71.79
2023-03-26T18:15:52.638Z,71.82
2023-03-26T18:18:22.926Z,71.58
2023-03-26T18:20:51.262Z,71.28
2023-03-26T18:23:24.971Z,71.34
2023-03-26T18:25:58.827Z,70.93
2023-03-26T18:28:31.879Z,70.61
2023-03-26T18:31:09.586Z,70.60
2023-03-26T18:33:44.575Z,69.47
2023-03-26T18:36:13.358Z,69.93
2023-03-26T18:38:43.051Z,71.75
2023-03-26T18:41:18.316Z,71.04
2023-03-26T18:43:45.913Z,71.01
2023-03-26T18:46:14.424Z,71.25
2023-03-26T18:48:42.220Z,69.41
2023-03-26T18:51:09.975Z,70.59
2023-03-26T18:53:40.269Z,71.22
2023-03-26T18:56:25.990Z,71.19
2023-03-26T18:58:53.713Z,72.15
2023-03-26T19:01:25.756Z,70.96
2023-03-26T19:03:54.473Z,71.28
2023-03-26T19:06:23.287Z,71.29
2023-03-26T19:08:51.129Z,70.90
2023-03-26T19:11:20.239Z,71.29
2023-03-26T19:13:59.067Z,69.69
2023-03-26T19:16:33.785Z,69.94
2023-03-26T19:19:02.490Z,69.65
2023-03-26T19:21:30.274Z,69.06
2023-03-26T19:23:57.999Z,71.05
2023-03-26T19:26:27.507Z,68.69
2023-03-26T19:28:57.578Z,68.78
2023-03-26T19:31:27.822Z,68.61
2023-03-26T19:33:57.697Z,68.82
2023-03-26T19:36:28.236Z,68.82
2023-03-26T19:39:04.838Z,67.96
2023-03-26T19:41:37.057Z,67.98
2023-03-26T19:44:07.836Z,67.99
2023-03-26T19:46:53.283Z,67.33
2023-03-26T19:49:29.683Z,67.50
2023-03-26T19:52:12.640Z,69.40
2023-03-26T19:55:00.346Z,66.63
2023-03-26T19:57:30.950Z,66.26
2023-03-26T19:59:58.675Z,68.29
2023-03-26T20:02:27.167Z,66.84
2023-03-26T20:04:55.031Z,68.84
2023-03-26T20:07:35.026Z,68.05
2023-03-26T20:10:04.159Z,66.31
2023-03-26T20:12:32.963Z,66.76
2023-03-26T20:15:01.699Z,66.87
2023-03-26T20:17:30.774Z,66.18
2023-03-26T20:19:58.882Z,67.65
2023-03-26T20:22:26.821Z,67.22
2023-03-26T20:24:54.702Z,68.56
2023-03-26T20:27:22.418Z,66.32
2023-03-26T20:29:51.618Z,67.86
2023-03-26T20:32:26.506Z,66.60
2023-03-26T20:34:54.978Z,67.16
2023-03-26T20:37:22.584Z,66.49
2023-03-26T20:39:50.616Z,68.15
2023-03-26T20:42:18.313Z,67.22
2023-03-26T20:44:46.904Z,67.18
2023-03-26T20:47:16.390Z,67.19
2023-03-26T20:49:43.915Z,66.73
2023-03-26T20:52:13.516Z,66.83
2023-03-26T20:54:41.805Z,67.36
2023-03-26T20:57:11.747Z,66.86
2023-03-26T20:59:39.353Z,68.13
2023-03-26T21:02:07.106Z,67.71
2023-03-26T21:04:35.915Z,68.31
2023-03-26T21:07:15.155Z,67.80
2023-03-26T21:09:46.542Z,67.50
2023-03-26T21:12:18.272Z,67.41
2023-03-26T21:14:46.626Z,69.00
2023-03-26T21:17:16.571Z,68.12
2023-03-26T21:19:46.674Z,68.37
2023-03-26T21:22:22.653Z,69.36
2023-03-26T21:25:02.347Z,68.25
2023-03-26T21:27:33.780Z,67.86
2023-03-26T21:30:01.861Z,69.10
2023-03-26T21:32:31.528Z,69.75
2023-03-26T21:35:01.156Z,68.20
2023-03-26T21:37:29.187Z,70.09
2023-03-26T21:39:57.147Z,69.74
2023-03-26T21:42:26.851Z,70.34
2023-03-26T21:44:54.938Z,68.68
2023-03-26T21:47:23.041Z,70.42
2023-03-26T21:49:50.993Z,68.88
2023-03-26T21:52:22.547Z,70.11
2023-03-26T21:54:50.588Z,70.43
2023-03-26T21:57:30.788Z,71.14
2023-03-26T22:00:08.378Z,72.11
2023-03-26T22:02:42.824Z,70.92
2023-03-26T22:05:14.459Z,72.11
2023-03-26T22:07:54.181Z,71.92
2023-03-26T22:10:22.102Z,70.98
2023-03-26T22:12:49.722Z,72.20
2023-03-26T22:15:19.000Z,70.31
2023-03-26T22:17:53.654Z,72.31
2023-03-26T22:20:25.147Z,71.32
2023-03-26T22:22:55.052Z,73.02
2023-03-26T22:25:23.609Z,72.53
2023-03-26T22:27:51.771Z,71.55
2023-03-26T22:30:20.619Z,71.51
2023-03-26T22:32:48.498Z,71.73
2023-03-26T22:35:16.556Z,73.32
2023-03-26T22:37:44.365Z,72.27
2023-03-26T22:40:14.008Z,72.84
2023-03-26T22:42:41.637Z,73.65
2023-03-26T22:45:10.162Z,73.01
2023-03-26T22:47:38.128Z,74.25
2023-03-26T22:50:07.413Z,74.39
2023-03-26T22:52:35.478Z,73.93
2023-03-26T22:55:03.287Z,74.28
2023-03-26T22:57:32.183Z,73.67
2023-03-26T23:00:08.199Z,73.63
2023-03-26T23:02:35.676Z,73.83
2023-03-26T23:05:03.200Z,74.02
2023-03-26T23:07:32.254Z,74.12
2023-03-26T23:09:59.713Z,74.65
2023-03-26T23:12:27.184Z,74.69
2023-03-26T23:14:55.956Z,74.71
2023-03-26T23:17:23.958Z,75.46
2023-03-26T23:19:51.570Z,74.65
2023-03-26T23:22:19.297Z,74.65
2023-03-26T23:24:46.758Z,74.86
2023-03-26T23:27:14.294Z,74.50
2023-03-26T23:29:45.708Z,73.93
2023-03-26T23:32:24.772Z,74.15
2023-03-26T23:34:53.046Z,74.14
2023-03-26T23:37:23.181Z,74.42
2023-03-26T23:39:51.078Z,73.97
2023-03-26T23:42:29.242Z,73.85
2023-03-26T23:44:57.461Z,72.79
2023-03-26T23:47:27.068Z,72.76
2023-03-26T23:49:54.599Z,72.63
2023-03-26T23:52:22.102Z,72.25
2023-03-26T23:54:49.590Z,71.29
2023-03-26T23:57:18.407Z,71.73
2023-03-26T23:59:45.959Z,71.72
